createdAt,value
2018-02-16T00:00:51.983Z,400.97
2018-02-16T00:03:19.537Z,389.67
2018-02-16T00:05:47.881Z,302.37
2018-02-16T00:08:16.212Z,547.77
2018-02-16T00:10:43.796Z,157.60
2018-02-16T00:13:11.339Z,264.90
2018-02-16T00:15:38.884Z,264.90
2018-02-16T00:18:07.220Z,203.73
2018-02-16T00:20:35.267Z,290.87
2018-02-16T00:23:02.849Z,152.67
2018-02-16T00:25:30.396Z,138.13
2018-02-16T00:27:58.792Z,126.10
2018-02-16T00:30:27.098Z,157.00
2018-02-16T00:32:54.649Z,287.27
2018-02-16T00:35:22.212Z,303.83
2018-02-16T00:37:50.529Z,146.30
2018-02-16T00:40:18.111Z,294.53
2018-02-16T00:42:45.684Z,327.83
2018-02-16T00:45:13.262Z,163.90
2018-02-16T00:47:40.809Z,290.67
2018-02-16T00:50:08.380Z,187.87
2018-02-16T00:52:35.926Z,148.10
2018-02-16T00:55:03.485Z,247.33
2018-02-16T00:57:31.065Z,109.40
2018-02-16T00:59:58.608Z,202.63
2018-02-16T01:02:26.175Z,382.17
2018-02-16T01:04:53.988Z,576.33
2018-02-16T01:07:21.576Z,371.20
2018-02-16T01:09:49.888Z,382.90
2018-02-16T01:12:17.445Z,222.40
2018-02-16T01:14:45.025Z,257.10
2018-02-16T01:17:12.575Z,176.47
2018-02-16T01:19:40.911Z,243.07
2018-02-16T01:22:08.460Z,203.37
2018-02-16T01:24:36.037Z,173.77
2018-02-16T01:27:03.583Z,100.33
2018-02-16T01:29:31.898Z,128.83
2018-02-16T01:31:59.487Z,122.23
2018-02-16T01:34:27.045Z,101.43
2018-02-16T01:36:54.615Z,191.00
2018-02-16T01:39:22.392Z,109.87
2018-02-16T01:41:49.988Z,115.03
2018-02-16T01:44:17.553Z,153.20
2018-02-16T01:46:45.116Z,127.07
2018-02-16T01:49:12.694Z,68.70
2018-02-16T01:51:40.257Z,135.73
2018-02-16T01:54:07.839Z,76.97
2018-02-16T01:56:35.390Z,124.37
2018-02-16T01:59:02.980Z,92.73
2018-02-16T02:01:30.528Z,140.67
2018-02-16T02:03:58.081Z,145.43
2018-02-16T02:06:26.411Z,141.90
2018-02-16T02:08:53.955Z,80.53
2018-02-16T02:11:21.537Z,198.90
2018-02-16T02:13:49.101Z,177.77
2018-02-16T02:16:16.695Z,242.33
2018-02-16T02:18:44.257Z,286.47
2018-02-16T02:21:11.811Z,294.80
2018-02-16T02:23:39.373Z,265.43
2018-02-16T02:26:06.940Z,210.77
2018-02-16T02:28:35.265Z,275.00
2018-02-16T02:31:02.814Z,298.23
2018-02-16T02:33:30.401Z,148.73
2018-02-16T02:35:57.952Z,229.77
2018-02-16T02:38:25.491Z,168.77
2018-02-16T02:40:53.064Z,140.10
2018-02-16T02:43:20.610Z,142.50
2018-02-16T02:45:48.175Z,153.70
2018-02-16T02:48:15.744Z,140.27
2018-02-16T02:50:43.332Z,413.30
2018-02-16T02:53:11.208Z,104.47
2018-02-16T02:55:38.756Z,168.87
2018-02-16T02:58:06.330Z,119.00
2018-02-16T03:00:33.885Z,235.50
2018-02-16T03:03:01.454Z,231.73
2018-02-16T03:05:29.004Z,197.97
2018-02-16T03:07:56.924Z,168.57
2018-02-16T03:10:24.465Z,67.97
2018-02-16T03:12:52.017Z,183.40
2018-02-16T03:15:20.352Z,179.33
2018-02-16T03:17:47.904Z,144.03
2018-02-16T03:20:15.479Z,43.20
2018-02-16T03:22:43.027Z,63.13
2018-02-16T03:25:11.356Z,226.83
2018-02-16T03:27:39.592Z,142.17
2018-02-16T03:30:07.901Z,199.57
2018-02-16T03:32:35.476Z,186.47
2018-02-16T03:35:03.081Z,224.00
2018-02-16T03:37:30.648Z,218.57
2018-02-16T03:39:58.189Z,172.83
2018-02-16T03:42:26.105Z,163.97
2018-02-16T03:44:53.652Z,118.13
2018-02-16T03:47:21.195Z,139.07
2018-02-16T03:49:49.528Z,195.77
2018-02-16T03:52:17.081Z,215.30
2018-02-16T03:54:44.664Z,211.60
2018-02-16T03:57:12.204Z,184.17
2018-02-16T03:59:39.772Z,155.07
2018-02-16T04:02:07.335Z,215.67
2018-02-16T04:04:34.879Z,203.90
2018-02-16T04:07:02.454Z,653.47
2018-02-16T04:09:30.011Z,245.77
2018-02-16T04:11:57.576Z,254.93
2018-02-16T04:14:25.120Z,202.07
2018-02-16T04:16:52.664Z,234.53
2018-02-16T04:19:21.580Z,204.03
2018-02-16T04:21:49.150Z,147.27
2018-02-16T04:24:16.723Z,181.30
2018-02-16T04:26:44.276Z,140.07
2018-02-16T04:29:11.835Z,194.83
2018-02-16T04:31:39.396Z,180.90
2018-02-16T04:34:06.939Z,224.60
2018-02-16T04:36:34.518Z,414.90
2018-02-16T04:39:02.063Z,367.30
2018-02-16T04:41:29.612Z,246.73
2018-02-16T04:43:57.175Z,257.07
2018-02-16T04:46:25.495Z,180.67
2018-02-16T04:48:53.068Z,215.93
2018-02-16T04:51:20.624Z,183.00
2018-02-16T04:53:48.185Z,133.40
2018-02-16T04:56:15.772Z,133.10
2018-02-16T04:58:43.329Z,146.27
2018-02-16T05:01:11.664Z,147.03
2018-02-16T05:03:39.203Z,110.20
2018-02-16T05:06:06.749Z,72.37
2018-02-16T05:08:35.081Z,60.77
2018-02-16T05:11:02.641Z,70.50
2018-02-16T05:13:30.210Z,76.83
2018-02-16T05:15:57.756Z,133.60
2018-02-16T05:18:26.068Z,471.87
2018-02-16T05:20:53.643Z,149.13
2018-02-16T05:23:21.188Z,145.37
2018-02-16T05:25:49.536Z,153.27
2018-02-16T05:28:17.105Z,219.23
2018-02-16T05:30:44.690Z,204.60
2018-02-16T05:33:12.232Z,187.07
2018-02-16T05:35:39.801Z,177.20
2018-02-16T05:38:07.351Z,194.90
2018-02-16T05:40:34.901Z,187.93
2018-02-16T05:43:03.233Z,196.40
2018-02-16T05:45:30.776Z,149.93
2018-02-16T05:47:58.338Z,133.70
2018-02-16T05:50:26.651Z,179.50
2018-02-16T05:52:54.223Z,161.53
2018-02-16T05:55:21.760Z,199.83
2018-02-16T05:57:50.075Z,174.43
2018-02-16T06:00:18.534Z,223.17
2018-02-16T06:02:46.871Z,246.00
2018-02-16T06:05:14.456Z,223.37
2018-02-16T06:07:42.016Z,216.47
2018-02-16T06:10:09.601Z,192.13
2018-02-16T06:12:37.148Z,229.07
2018-02-16T06:15:04.700Z,124.93
2018-02-16T06:17:32.300Z,208.43
2018-02-16T06:19:59.851Z,199.70
2018-02-16T06:22:27.415Z,243.23
2018-02-16T06:24:55.734Z,252.67
2018-02-16T06:27:23.304Z,167.17
2018-02-16T06:29:50.848Z,184.10
2018-02-16T06:32:18.430Z,141.30
2018-02-16T06:34:46.020Z,130.97
2018-02-16T06:37:13.573Z,171.77
2018-02-16T06:39:41.145Z,196.93
2018-02-16T06:42:08.703Z,175.70
2018-02-16T06:44:37.740Z,201.63
2018-02-16T06:47:05.303Z,78.37
2018-02-16T06:49:36.468Z,221.33
2018-02-16T06:52:06.313Z,165.17
2018-02-16T06:54:33.953Z,189.63
2018-02-16T06:57:14.580Z,204.33
2018-02-16T06:59:43.084Z,180.30
2018-02-16T07:02:10.632Z,158.07
2018-02-16T07:04:38.203Z,117.43
2018-02-16T07:07:05.751Z,149.13
2018-02-16T07:09:48.336Z,80.73
2018-02-16T07:12:38.282Z,86.23
2018-02-16T07:15:32.796Z,123.20
2018-02-16T07:18:10.972Z,127.90
2018-02-16T07:24:06.208Z,156.13
2018-02-16T07:26:34.612Z,100.90
2018-02-16T07:29:02.220Z,124.67
2018-02-16T07:31:37.744Z,102.97
2018-02-16T07:34:08.183Z,104.90
2018-02-16T07:36:36.532Z,104.73
2018-02-16T07:39:05.584Z,69.63
2018-02-16T07:41:33.132Z,112.83
2018-02-16T07:44:02.665Z,78.13
2018-02-16T07:46:30.253Z,75.93
2018-02-16T07:48:57.821Z,79.63
2018-02-16T07:51:25.364Z,67.50
2018-02-16T07:53:52.898Z,65.77
2018-02-16T07:56:20.459Z,66.27
2018-02-16T07:58:48.025Z,79.83
2018-02-16T08:01:15.691Z,63.53
2018-02-16T08:03:43.263Z,70.73
2018-02-16T08:06:10.838Z,58.63
2018-02-16T08:08:38.411Z,76.87
2018-02-16T08:11:05.947Z,63.27
2018-02-16T08:13:34.293Z,63.00
2018-02-16T08:16:01.840Z,44.83
2018-02-16T08:18:29.391Z,49.67
2018-02-16T08:20:57.744Z,56.50
2018-02-16T08:23:26.081Z,42.13
2018-02-16T08:25:53.651Z,49.13
2018-02-16T08:28:21.195Z,55.57
2018-02-16T08:30:48.786Z,46.47
2018-02-16T08:33:16.360Z,41.17
2018-02-16T08:35:43.911Z,47.83
2018-02-16T08:38:11.510Z,39.70
2018-02-16T08:40:39.052Z,34.87
2018-02-16T08:43:06.626Z,41.57
2018-02-16T08:45:35.016Z,46.47
2018-02-16T08:48:02.584Z,49.17
2018-02-16T08:50:30.132Z,43.60
2018-02-16T08:53:03.201Z,43.90
2018-02-16T08:55:30.757Z,38.27
2018-02-16T08:57:59.477Z,41.23
2018-02-16T09:00:27.040Z,32.87
2018-02-16T09:02:54.600Z,37.90
2018-02-16T09:05:22.170Z,39.83
2018-02-16T09:07:49.716Z,39.97
2018-02-16T09:10:18.057Z,43.80
2018-02-16T09:12:45.693Z,39.47
2018-02-16T09:15:13.240Z,34.57
2018-02-16T09:17:41.583Z,39.50
2018-02-16T09:20:09.136Z,36.83
2018-02-16T09:22:36.716Z,35.57
2018-02-16T09:25:04.295Z,37.37
2018-02-16T09:27:32.239Z,42.77
2018-02-16T09:30:00.568Z,37.23
2018-02-16T09:32:28.108Z,37.00
2018-02-16T09:34:55.672Z,28.80
2018-02-16T09:37:23.387Z,41.03
2018-02-16T09:39:51.320Z,34.97
2018-02-16T09:42:19.777Z,33.80
2018-02-16T09:44:47.543Z,28.53
2018-02-16T09:47:15.182Z,31.40
2018-02-16T09:49:42.727Z,28.60
2018-02-16T09:52:11.048Z,29.67
2018-02-16T09:54:38.604Z,30.67
2018-02-16T09:57:06.934Z,30.03
2018-02-16T09:59:34.488Z,24.17
2018-02-16T10:02:02.061Z,25.80
2018-02-16T10:04:29.592Z,25.10
2018-02-16T10:06:57.904Z,26.70
2018-02-16T10:09:25.466Z,26.20
2018-02-16T10:11:53.016Z,21.07
2018-02-16T10:14:21.208Z,24.57
2018-02-16T10:16:49.528Z,22.23
2018-02-16T10:19:17.525Z,22.83
2018-02-16T10:21:45.063Z,21.57
2018-02-16T10:24:12.676Z,18.30
2018-02-16T10:26:40.257Z,20.53
2018-02-16T10:29:07.817Z,15.23
2018-02-16T10:31:35.392Z,16.83
2018-02-16T10:34:02.930Z,18.00
2018-02-16T10:36:30.516Z,21.70
2018-02-16T10:38:58.853Z,15.60
2018-02-16T10:41:26.400Z,19.43
2018-02-16T10:43:53.955Z,19.50
2018-02-16T10:46:21.497Z,15.23
2018-02-16T10:48:49.837Z,15.40
2018-02-16T10:51:17.407Z,18.37
2018-02-16T10:53:45.015Z,15.73
2018-02-16T10:56:12.651Z,19.00
2018-02-16T10:58:40.196Z,23.37
2018-02-16T11:01:14.144Z,15.47
2018-02-16T11:03:41.700Z,18.90
2018-02-16T11:06:13.094Z,13.80
2018-02-16T11:08:46.412Z,17.30
2018-02-16T11:11:13.988Z,18.40
2018-02-16T11:13:42.306Z,15.43
2018-02-16T11:16:09.878Z,15.83
2018-02-16T11:18:37.431Z,9.57
2018-02-16T11:21:05.811Z,14.60
2018-02-16T11:23:34.166Z,11.97
2018-02-16T11:26:02.627Z,15.70
2018-02-16T11:28:30.198Z,15.80
2018-02-16T11:30:57.751Z,13.10
2018-02-16T11:33:25.324Z,11.60
2018-02-16T11:35:52.876Z,10.10
2018-02-16T11:38:20.482Z,18.63
2018-02-16T11:40:48.203Z,14.77
2018-02-16T11:43:15.959Z,13.87
2018-02-16T11:45:43.560Z,13.57
2018-02-16T11:48:12.117Z,12.33
2018-02-16T11:50:39.692Z,15.50
2018-02-16T11:53:07.233Z,13.07
2018-02-16T11:55:34.783Z,14.37
2018-02-16T11:58:03.100Z,14.00
2018-02-16T12:00:30.659Z,12.33
2018-02-16T12:02:58.231Z,11.33
2018-02-16T12:05:25.783Z,11.80
2018-02-16T12:07:53.409Z,11.63
2018-02-16T12:10:21.006Z,8.60
2018-02-16T12:12:48.572Z,12.80
2018-02-16T12:15:16.607Z,13.43
2018-02-16T12:17:44.168Z,12.87
2018-02-16T12:20:12.639Z,12.10
2018-02-16T12:22:40.207Z,11.23
2018-02-16T12:25:07.755Z,13.03
2018-02-16T12:27:35.346Z,13.87
2018-02-16T12:30:03.537Z,13.93
2018-02-16T12:32:31.092Z,12.07
2018-02-16T12:34:58.655Z,11.63
2018-02-16T12:37:26.904Z,9.67
2018-02-16T12:39:54.476Z,13.07
2018-02-16T12:42:22.015Z,9.47
2018-02-16T12:44:50.342Z,10.97
2018-02-16T12:47:17.931Z,11.33
2018-02-16T12:49:45.492Z,10.47
2018-02-16T12:52:13.059Z,10.33
2018-02-16T12:54:40.595Z,11.33
2018-02-16T12:57:08.919Z,10.60
2018-02-16T12:59:37.187Z,8.33
2018-02-16T13:02:04.723Z,8.37
2018-02-16T13:04:32.289Z,8.90
2018-02-16T13:06:59.841Z,10.47
2018-02-16T13:09:27.395Z,10.67
2018-02-16T13:11:54.955Z,7.93
2018-02-16T13:14:22.493Z,9.07
2018-02-16T13:16:51.706Z,11.20
2018-02-16T13:19:20.085Z,10.33
2018-02-16T13:21:47.749Z,9.70
2018-02-16T13:24:15.928Z,12.07
2018-02-16T13:26:43.497Z,8.83
2018-02-16T13:29:11.061Z,12.10
2018-02-16T13:31:38.603Z,10.80
2018-02-16T13:34:06.207Z,5.90
2018-02-16T13:36:33.806Z,10.90
2018-02-16T13:39:03.077Z,7.53
2018-02-16T13:41:30.636Z,6.47
2018-02-16T13:43:58.176Z,8.67
2018-02-16T13:46:26.499Z,8.33
2018-02-16T13:48:54.045Z,7.57
2018-02-16T13:51:21.648Z,12.67
2018-02-16T13:53:49.221Z,9.97
2018-02-16T13:56:16.796Z,9.20
2018-02-16T13:58:44.362Z,8.93
2018-02-16T14:01:11.907Z,10.27
2018-02-16T14:03:39.463Z,6.53
2018-02-16T14:06:07.768Z,7.73
2018-02-16T14:08:35.364Z,11.40
2018-02-16T14:11:02.907Z,9.37
2018-02-16T14:13:30.448Z,8.43
2018-02-16T14:15:58.061Z,7.73
2018-02-16T14:18:25.585Z,6.40
2018-02-16T14:20:53.183Z,7.50
2018-02-16T14:23:21.494Z,8.27
2018-02-16T14:25:49.165Z,7.43
2018-02-16T14:28:16.759Z,9.60
2018-02-16T14:30:44.317Z,10.37
2018-02-16T14:33:11.892Z,6.17
2018-02-16T14:35:39.456Z,9.20
2018-02-16T14:38:07.028Z,8.37
2018-02-16T14:40:34.585Z,7.60
2018-02-16T14:43:02.183Z,6.43
2018-02-16T14:45:29.729Z,9.87
2018-02-16T14:47:57.383Z,9.03
2018-02-16T14:50:25.714Z,5.90
2018-02-16T14:52:54.077Z,9.47
2018-02-16T14:55:22.424Z,11.87
2018-02-16T14:57:49.971Z,6.87
2018-02-16T15:00:17.719Z,9.47
2018-02-16T15:02:45.300Z,7.73
2018-02-16T15:05:12.869Z,9.13
2018-02-16T15:07:40.434Z,5.77
2018-02-16T15:10:07.976Z,10.10
2018-02-16T15:12:36.327Z,8.07
2018-02-16T15:15:04.655Z,7.87
2018-02-16T15:17:32.992Z,9.27
2018-02-16T15:20:00.539Z,9.07
2018-02-16T15:22:28.120Z,13.03
2018-02-16T15:24:55.662Z,11.57
2018-02-16T15:27:23.971Z,9.53
2018-02-16T15:29:51.532Z,8.23
2018-02-16T15:32:19.117Z,13.60
2018-02-16T15:34:46.714Z,9.20
2018-02-16T15:37:14.260Z,15.00
2018-02-16T15:39:41.856Z,11.63
2018-02-16T15:42:09.480Z,12.37
2018-02-16T15:44:37.787Z,9.57
2018-02-16T15:47:05.380Z,11.40
2018-02-16T15:49:32.924Z,10.40
2018-02-16T15:52:00.507Z,8.00
2018-02-16T15:54:28.079Z,9.00
2018-02-16T15:56:55.983Z,9.33
2018-02-16T15:59:24.132Z,11.50
2018-02-16T16:01:51.696Z,8.70
2018-02-16T16:04:19.293Z,11.37
2018-02-16T16:06:47.081Z,11.70
2018-02-16T16:09:15.475Z,8.07
2018-02-16T16:11:43.023Z,9.83
2018-02-16T16:14:10.606Z,8.37
2018-02-16T16:16:38.148Z,12.17
2018-02-16T16:19:06.514Z,10.00
2018-02-16T16:21:34.103Z,13.00
2018-02-16T16:24:02.782Z,17.97
2018-02-16T16:26:31.268Z,13.53
2018-02-16T16:28:58.816Z,13.37
2018-02-16T16:31:27.916Z,11.70
2018-02-16T16:33:55.503Z,11.20
2018-02-16T16:36:23.729Z,11.67
2018-02-16T16:38:52.335Z,8.17
2018-02-16T16:41:19.964Z,9.70
2018-02-16T16:43:47.565Z,12.70
2018-02-16T16:46:15.156Z,9.00
2018-02-16T16:48:42.815Z,9.43
2018-02-16T16:51:11.161Z,9.00
2018-02-16T16:53:38.717Z,15.50
2018-02-16T16:56:06.313Z,10.83
2018-02-16T16:58:34.646Z,12.03
2018-02-16T17:01:02.985Z,9.43
2018-02-16T17:03:30.555Z,9.53
2018-02-16T17:05:58.657Z,8.53
2018-02-16T17:08:26.224Z,10.80
2018-02-16T17:10:53.779Z,10.47
2018-02-16T17:13:22.115Z,9.47
2018-02-16T17:15:50.440Z,10.50
2018-02-16T17:18:18.020Z,10.93
2018-02-16T17:20:45.599Z,8.43
2018-02-16T17:23:13.137Z,12.77
2018-02-16T17:25:40.699Z,10.13
2018-02-16T17:28:09.002Z,11.07
2018-02-16T17:30:36.576Z,11.93
2018-02-16T17:33:04.128Z,11.37
2018-02-16T17:35:32.457Z,6.97
2018-02-16T17:37:59.993Z,8.70
2018-02-16T17:40:28.824Z,10.97
2018-02-16T17:42:56.380Z,6.27
2018-02-16T17:45:23.921Z,9.40
2018-02-16T17:47:51.494Z,10.30
2018-02-16T17:50:19.822Z,9.17
2018-02-16T17:52:47.380Z,11.23
2018-02-16T17:55:16.015Z,11.10
2018-02-16T17:57:44.325Z,9.60
2018-02-16T18:00:11.916Z,11.33
2018-02-16T18:02:40.226Z,11.03
2018-02-16T18:05:07.792Z,5.07
2018-02-16T18:07:35.646Z,13.90
2018-02-16T18:10:03.976Z,9.97
2018-02-16T18:12:31.548Z,8.67
2018-02-16T18:14:59.093Z,12.57
2018-02-16T18:17:26.657Z,11.83
2018-02-16T18:19:54.991Z,10.43
2018-02-16T18:22:22.528Z,9.03
2018-02-16T18:24:50.108Z,12.20
2018-02-16T18:27:17.698Z,10.00
2018-02-16T18:29:45.363Z,7.70
2018-02-16T18:32:12.953Z,8.43
2018-02-16T18:34:40.655Z,10.47
2018-02-16T18:37:09.002Z,7.00
2018-02-16T18:39:36.543Z,7.93
2018-02-16T18:42:04.856Z,9.10
2018-02-16T18:44:32.396Z,13.87
2018-02-16T18:47:01.044Z,14.83
2018-02-16T18:49:28.596Z,12.47
2018-02-16T18:51:56.136Z,10.67
2018-02-16T18:54:24.469Z,13.10
2018-02-16T18:56:52.014Z,14.00
2018-02-16T18:59:19.600Z,12.80
2018-02-16T19:01:47.179Z,11.20
2018-02-16T19:04:15.243Z,14.47
2018-02-16T19:06:43.296Z,10.90
2018-02-16T19:09:10.842Z,14.33
2018-02-16T19:11:39.756Z,12.80
2018-02-16T19:14:07.364Z,10.27
2018-02-16T19:16:35.784Z,13.93
2018-02-16T19:19:03.348Z,12.70
2018-02-16T19:21:30.940Z,13.93
2018-02-16T19:23:58.496Z,15.60
2018-02-16T19:26:26.040Z,13.97
2018-02-16T19:28:54.368Z,10.43
2018-02-16T19:31:21.904Z,11.30
2018-02-16T19:33:49.531Z,9.73
2018-02-16T19:36:17.118Z,16.90
2018-02-16T19:38:44.712Z,11.57
2018-02-16T19:41:13.026Z,13.07
2018-02-16T19:43:40.559Z,12.77
2018-02-16T19:46:08.151Z,12.60
2018-02-16T19:48:35.697Z,11.77
2018-02-16T20:31:54.020Z,14.63
2018-02-16T20:34:22.488Z,11.43
2018-02-16T20:36:50.036Z,12.40
2018-02-16T20:39:17.658Z,14.87
2018-02-16T20:41:46.048Z,12.03
2018-02-16T20:44:13.831Z,11.67
2018-02-16T20:46:41.415Z,13.57
2018-02-16T20:49:08.956Z,12.93
2018-02-16T20:51:37.302Z,13.60
2018-02-16T20:54:04.855Z,18.90
2018-02-16T20:56:32.400Z,12.70
2018-02-16T20:59:00.736Z,15.13
2018-02-16T21:01:28.283Z,14.37
2018-02-16T21:03:55.840Z,15.93
2018-02-16T21:06:23.398Z,14.87
2018-02-16T21:08:51.772Z,21.87
2018-02-16T21:11:19.323Z,17.73
2018-02-16T21:13:46.885Z,15.83
2018-02-16T21:16:14.481Z,22.23
2018-02-16T21:18:42.033Z,13.20
2018-02-16T21:21:09.606Z,14.43
2018-02-16T21:23:37.144Z,18.03
2018-02-16T21:26:04.697Z,20.87
2018-02-16T21:28:32.267Z,15.37
2018-02-16T21:31:00.592Z,12.93
2018-02-16T21:33:28.151Z,13.90
2018-02-16T21:35:55.751Z,15.13
2018-02-16T21:38:23.343Z,13.20
2018-02-16T21:40:50.883Z,14.17
2018-02-16T21:43:18.423Z,16.10
2018-02-16T21:45:46.002Z,12.50
2018-02-16T21:48:13.574Z,16.40
2018-02-16T21:50:41.147Z,15.93
2018-02-16T21:53:08.692Z,14.23
2018-02-16T21:55:36.999Z,13.07
2018-02-16T21:58:04.580Z,18.43
2018-02-16T22:00:32.124Z,16.87
2018-02-16T22:03:00.464Z,14.57
2018-02-16T22:05:28.005Z,16.37
2018-02-16T22:07:55.596Z,17.67
2018-02-16T22:10:23.144Z,18.87
2018-02-16T22:12:50.732Z,14.43
2018-02-16T22:15:18.281Z,13.30
2018-02-16T22:17:45.880Z,15.20
2018-02-16T22:20:13.452Z,16.93
2018-02-16T22:22:41.043Z,18.00
2018-02-16T22:25:08.592Z,12.40
2018-02-16T22:27:36.134Z,19.70
2018-02-16T22:30:04.519Z,18.77
2018-02-16T22:32:32.832Z,14.13
2018-02-16T22:35:00.404Z,18.77
2018-02-16T22:37:27.955Z,18.77
2018-02-16T22:39:56.298Z,18.37
2018-02-16T22:42:24.611Z,13.73
2018-02-16T22:44:52.933Z,13.03
2018-02-16T22:47:20.507Z,14.30
2018-02-16T22:49:48.067Z,18.27
2018-02-16T22:52:15.652Z,17.27
2018-02-16T22:54:43.196Z,15.53
2018-02-16T22:57:11.520Z,13.33
2018-02-16T22:59:39.063Z,18.97
2018-02-16T23:02:07.400Z,16.60
2018-02-16T23:04:34.931Z,16.50
2018-02-16T23:07:02.471Z,14.97
2018-02-16T23:09:30.044Z,17.93
2018-02-16T23:11:57.584Z,15.93
2018-02-16T23:14:25.169Z,13.37
2018-02-16T23:16:52.736Z,16.63
2018-02-16T23:19:20.308Z,15.07
2018-02-16T23:21:47.880Z,13.70
2018-02-16T23:24:17.173Z,18.10
2018-02-16T23:26:44.792Z,14.27
2018-02-16T23:29:12.338Z,16.67
2018-02-16T23:31:39.906Z,13.60
2018-02-16T23:34:07.444Z,11.73
2018-02-16T23:36:35.008Z,15.90
2018-02-16T23:39:02.600Z,14.87
2018-02-16T23:41:30.139Z,14.20
2018-02-16T23:43:57.646Z,22.67
2018-02-16T23:46:25.954Z,14.10
2018-02-16T23:48:53.516Z,15.47
2018-02-16T23:51:21.068Z,13.30
2018-02-16T23:53:48.908Z,13.20
2018-02-16T23:56:16.480Z,17.63
2018-02-16T23:58:44.060Z,20.40
